createdAt,value
2023-06-17T00:00:40.629Z,14.99
2023-06-17T00:03:14.045Z,14.95
2023-06-17T00:05:46.808Z,14.80
2023-06-17T00:08:19.085Z,14.77
2023-06-17T00:10:51.441Z,14.75
2023-06-17T00:13:26.766Z,14.73
2023-06-17T00:16:00.524Z,14.69
2023-06-17T00:18:34.017Z,14.63
2023-06-17T00:21:06.182Z,14.58
2023-06-17T00:23:38.430Z,14.52
2023-06-17T00:26:11.081Z,14.46
2023-06-17T00:28:45.904Z,14.41
2023-06-17T00:31:18.204Z,14.36
2023-06-17T00:33:50.419Z,14.29
2023-06-17T00:36:22.845Z,14.22
2023-06-17T00:38:55.168Z,14.17
2023-06-17T00:41:27.611Z,14.12
2023-06-17T00:44:02.542Z,14.06
2023-06-17T00:46:41.958Z,14.00
2023-06-17T00:49:15.037Z,13.93
2023-06-17T00:52:00.129Z,13.87
2023-06-17T00:54:37.784Z,13.82
2023-06-17T00:57:14.829Z,13.78
2023-06-17T00:59:50.498Z,13.76
2023-06-17T01:02:27.227Z,13.76
2023-06-17T01:04:59.849Z,13.72
2023-06-17T01:07:41.594Z,13.66
2023-06-17T01:10:26.078Z,13.60
2023-06-17T01:13:01.644Z,13.56
2023-06-17T01:15:38.376Z,13.51
2023-06-17T01:18:11.226Z,13.48
2023-06-17T01:20:45.007Z,13.45
2023-06-17T01:23:19.334Z,13.42
2023-06-17T01:25:59.278Z,13.38
2023-06-17T01:28:31.509Z,13.35
2023-06-17T01:31:04.017Z,13.31
2023-06-17T01:33:37.426Z,13.26
2023-06-17T01:36:19.039Z,13.20
2023-06-17T01:38:55.611Z,13.13
2023-06-17T01:41:44.213Z,13.08
2023-06-17T01:44:19.848Z,13.03
2023-06-17T01:46:52.229Z,12.99
2023-06-17T01:49:24.510Z,12.96
2023-06-17T01:51:56.791Z,12.92
2023-06-17T01:54:29.168Z,12.88
2023-06-17T01:57:04.736Z,12.85
2023-06-17T01:59:37.318Z,12.83
2023-06-17T02:02:10.057Z,12.80
2023-06-17T02:04:42.602Z,12.69
2023-06-17T02:07:14.916Z,12.59
2023-06-17T02:09:47.363Z,12.58
2023-06-17T02:12:22.280Z,12.57
2023-06-17T02:14:54.502Z,12.57
2023-06-17T02:17:29.100Z,12.57
2023-06-17T02:20:01.509Z,12.55
2023-06-17T02:22:33.812Z,12.54
2023-06-17T02:25:06.625Z,12.53
2023-06-17T02:27:41.736Z,12.52
2023-06-17T02:30:16.682Z,12.51
2023-06-17T02:32:49.042Z,12.48
2023-06-17T02:35:21.619Z,12.45
2023-06-17T02:37:56.936Z,12.43
2023-06-17T02:40:29.152Z,12.40
2023-06-17T02:43:03.980Z,12.36
2023-06-17T02:45:36.229Z,12.32
2023-06-17T02:48:08.754Z,12.28
2023-06-17T02:50:41.661Z,12.25
2023-06-17T02:53:13.842Z,12.21
2023-06-17T02:55:48.055Z,12.19
2023-06-17T02:58:22.930Z,12.17
2023-06-17T03:00:55.614Z,12.16
2023-06-17T03:03:35.537Z,12.12
2023-06-17T03:06:10.628Z,12.10
2023-06-17T03:08:44.962Z,12.06
2023-06-17T03:11:17.220Z,12.03
2023-06-17T03:13:52.033Z,11.98
2023-06-17T03:16:24.529Z,11.94
2023-06-17T03:18:56.768Z,11.91
2023-06-17T03:21:30.819Z,11.87
2023-06-17T03:24:04.103Z,11.83
2023-06-17T03:26:36.520Z,11.80
2023-06-17T03:29:11.703Z,11.78
2023-06-17T03:31:43.924Z,11.77
2023-06-17T03:34:16.388Z,11.77
2023-06-17T03:36:48.878Z,11.76
2023-06-17T03:39:21.203Z,11.76
2023-06-17T03:41:53.498Z,11.77
2023-06-17T03:44:28.332Z,11.78
2023-06-17T03:47:02.139Z,11.78
2023-06-17T03:49:34.415Z,11.79
2023-06-17T03:52:06.700Z,11.80
2023-06-17T03:54:40.593Z,11.80
2023-06-17T03:57:12.982Z,11.80
2023-06-17T03:59:47.746Z,11.81
2023-06-17T04:02:20.093Z,11.83
2023-06-17T04:04:53.942Z,11.79
2023-06-17T04:07:26.453Z,11.74
2023-06-17T04:10:07.278Z,11.75
2023-06-17T04:12:50.983Z,11.75
2023-06-17T04:15:25.871Z,11.76
2023-06-17T04:17:58.479Z,11.79
2023-06-17T04:20:31.225Z,11.83
2023-06-17T04:23:03.463Z,11.88
2023-06-17T04:25:38.390Z,11.95
2023-06-17T04:28:14.368Z,12.03
2023-06-17T04:30:49.571Z,12.12
2023-06-17T04:33:21.918Z,12.20
2023-06-17T04:35:55.157Z,12.26
2023-06-17T04:38:27.470Z,12.33
2023-06-17T04:40:59.726Z,12.40
2023-06-17T04:43:34.309Z,12.47
2023-06-17T04:46:09.964Z,12.54
2023-06-17T04:48:43.621Z,12.61
2023-06-17T04:51:19.078Z,12.70
2023-06-17T04:53:51.961Z,12.79
2023-06-17T04:56:28.232Z,12.89
2023-06-17T04:59:00.698Z,13.00
2023-06-17T05:01:35.554Z,13.12
2023-06-17T05:04:08.957Z,13.25
2023-06-17T05:06:41.347Z,13.40
2023-06-17T05:09:13.685Z,13.56
2023-06-17T05:11:46.395Z,13.72
2023-06-17T05:14:18.688Z,13.87
2023-06-17T05:16:53.619Z,14.01
2023-06-17T05:19:25.970Z,14.17
2023-06-17T05:21:58.218Z,14.32
2023-06-17T05:24:30.835Z,14.46
2023-06-17T05:27:03.192Z,14.62
2023-06-17T05:29:38.305Z,14.84
2023-06-17T05:32:14.716Z,15.07
2023-06-17T05:34:47.022Z,15.31
2023-06-17T05:37:19.441Z,15.53
2023-06-17T05:39:51.691Z,15.72
2023-06-17T05:42:23.982Z,15.98
2023-06-17T05:44:56.490Z,16.20
2023-06-17T05:47:31.477Z,16.40
2023-06-17T05:50:03.727Z,16.58
2023-06-17T05:52:35.969Z,16.74
2023-06-17T05:55:08.629Z,16.88
2023-06-17T05:57:41.060Z,17.05
2023-06-17T06:00:14.969Z,17.25
2023-06-17T06:02:49.817Z,17.41
2023-06-17T06:05:22.307Z,17.52
2023-06-17T06:07:54.541Z,17.64
2023-06-17T06:10:28.791Z,17.78
2023-06-17T06:13:01.013Z,17.94
2023-06-17T06:15:33.820Z,18.09
2023-06-17T06:18:09.007Z,18.21
2023-06-17T06:20:41.378Z,18.35
2023-06-17T06:23:13.583Z,18.48
2023-06-17T06:25:45.942Z,18.63
2023-06-17T06:28:18.186Z,18.75
2023-06-17T06:30:50.692Z,18.84
2023-06-17T06:33:25.888Z,18.93
2023-06-17T06:35:58.292Z,19.01
2023-06-17T06:38:30.449Z,19.09
2023-06-17T06:41:02.676Z,19.18
2023-06-17T06:43:35.192Z,19.28
2023-06-17T06:46:08.607Z,19.39
2023-06-17T06:48:43.452Z,19.49
2023-06-17T06:51:15.743Z,19.60
2023-06-17T06:53:48.282Z,19.70
2023-06-17T06:56:20.587Z,19.81
2023-06-17T06:58:52.829Z,19.93
2023-06-17T07:01:25.056Z,20.03
2023-06-17T07:03:59.874Z,20.14
2023-06-17T07:06:32.172Z,20.25
2023-06-17T07:09:07.643Z,20.36
2023-06-17T07:11:39.950Z,20.46
2023-06-17T07:14:12.312Z,20.55
2023-06-17T07:16:44.707Z,20.64
2023-06-17T07:19:19.626Z,20.71
2023-06-17T07:21:52.709Z,20.78
2023-06-17T07:24:25.026Z,20.88
2023-06-17T07:26:57.443Z,20.98
2023-06-17T07:29:29.716Z,21.06
2023-06-17T07:32:02.018Z,21.18
2023-06-17T07:34:36.789Z,21.32
2023-06-17T07:37:09.650Z,21.45
2023-06-17T07:39:41.782Z,21.53
2023-06-17T07:42:14.033Z,21.59
2023-06-17T07:44:46.167Z,21.66
2023-06-17T07:47:18.416Z,21.73
2023-06-17T07:49:53.242Z,21.82
2023-06-17T07:52:25.484Z,21.91
2023-06-17T07:54:57.999Z,21.98
2023-06-17T07:57:30.229Z,22.07
2023-06-17T08:00:02.641Z,22.13
2023-06-17T08:02:34.912Z,22.20
2023-06-17T08:05:10.770Z,22.24
2023-06-17T08:07:43.231Z,22.30
2023-06-17T08:10:15.475Z,22.40
2023-06-17T08:12:48.361Z,22.50
2023-06-17T08:15:21.007Z,22.58
2023-06-17T08:17:54.304Z,22.66
2023-06-17T08:20:29.847Z,22.75
2023-06-17T08:23:02.330Z,22.86
2023-06-17T08:25:34.898Z,22.98
2023-06-17T08:28:07.529Z,23.10
2023-06-17T08:30:39.765Z,23.18
2023-06-17T08:33:12.066Z,23.28
2023-06-17T08:35:46.996Z,23.40
2023-06-17T08:38:19.352Z,23.49
2023-06-17T08:40:51.702Z,23.57
2023-06-17T08:43:27.031Z,23.65
2023-06-17T08:46:02.533Z,23.71
2023-06-17T08:48:36.669Z,23.81
2023-06-17T08:51:13.745Z,23.87
2023-06-17T08:53:48.992Z,23.97
2023-06-17T08:56:21.383Z,24.06
2023-06-17T08:58:55.714Z,24.15
2023-06-17T09:01:29.462Z,24.24
2023-06-17T09:04:03.094Z,24.35
2023-06-17T09:06:38.019Z,24.43
2023-06-17T09:09:10.387Z,24.54
2023-06-17T09:11:45.646Z,24.63
2023-06-17T09:14:17.950Z,24.71
2023-06-17T09:16:50.792Z,24.81
2023-06-17T09:19:23.183Z,24.88
2023-06-17T09:21:59.772Z,24.94
2023-06-17T09:24:34.690Z,25.02
2023-06-17T09:27:07.743Z,25.10
2023-06-17T09:29:39.987Z,25.18
2023-06-17T09:32:12.398Z,25.26
2023-06-17T09:34:53.264Z,25.36
2023-06-17T09:37:28.258Z,25.49
2023-06-17T09:40:07.170Z,25.59
2023-06-17T09:42:39.644Z,25.68
2023-06-17T09:45:14.362Z,25.75
2023-06-17T09:47:46.827Z,25.81
2023-06-17T09:50:19.516Z,25.86
2023-06-17T09:52:55.884Z,25.88
2023-06-17T09:55:28.747Z,25.94
2023-06-17T09:58:03.053Z,26.03
2023-06-17T10:00:36.691Z,26.15
2023-06-17T10:03:08.981Z,26.26
2023-06-17T10:05:41.675Z,26.30
2023-06-17T10:08:17.310Z,26.34
2023-06-17T10:10:50.572Z,26.43
2023-06-17T10:13:26.731Z,26.52
2023-06-17T10:16:02.862Z,26.67
2023-06-17T10:18:38.761Z,26.79
2023-06-17T10:21:15.392Z,26.85
2023-06-17T10:23:51.911Z,26.91
2023-06-17T10:26:25.368Z,26.98
2023-06-17T10:29:08.219Z,27.10
2023-06-17T10:31:44.231Z,27.25
2023-06-17T10:34:21.537Z,27.45
2023-06-17T10:36:55.252Z,27.55
2023-06-17T10:39:30.643Z,27.63
2023-06-17T10:42:06.162Z,27.70
2023-06-17T10:44:48.854Z,27.77
2023-06-17T10:47:27.169Z,27.85
2023-06-17T10:50:01.927Z,27.92
2023-06-17T10:52:34.786Z,27.97
2023-06-17T10:55:10.183Z,28.05
2023-06-17T10:57:42.538Z,28.15
2023-06-17T11:00:15.688Z,28.25
2023-06-17T11:02:48.870Z,28.33
2023-06-17T11:05:21.491Z,28.45
2023-06-17T11:07:54.004Z,28.48
2023-06-17T11:10:32.595Z,28.49
2023-06-17T11:13:05.960Z,28.52
2023-06-17T11:15:38.129Z,28.56
2023-06-17T11:18:10.514Z,28.68
2023-06-17T11:20:42.864Z,28.81
2023-06-17T11:23:16.331Z,28.92
2023-06-17T11:25:54.684Z,29.02
2023-06-17T11:28:27.066Z,29.11
2023-06-17T11:31:01.008Z,29.17
2023-06-17T11:33:36.192Z,29.22
2023-06-17T11:36:15.227Z,29.26
2023-06-17T11:38:50.130Z,29.31
2023-06-17T11:41:25.261Z,29.38
2023-06-17T11:43:59.643Z,29.52
2023-06-17T11:46:32.068Z,29.73
2023-06-17T11:49:04.389Z,29.95
2023-06-17T11:51:36.612Z,30.18
2023-06-17T11:54:10.572Z,30.36
2023-06-17T11:56:45.899Z,30.41
2023-06-17T11:59:19.109Z,30.44
2023-06-17T12:01:53.218Z,30.50
2023-06-17T12:04:25.772Z,30.57
2023-06-17T12:06:58.308Z,30.62
2023-06-17T12:09:31.140Z,30.71
2023-06-17T12:12:05.976Z,30.81
2023-06-17T12:14:42.813Z,30.99
2023-06-17T12:17:23.461Z,31.07
2023-06-17T12:19:55.774Z,31.11
2023-06-17T12:22:28.071Z,31.15
2023-06-17T12:25:00.283Z,31.25
2023-06-17T12:27:36.128Z,31.33
2023-06-17T12:30:09.522Z,31.39
2023-06-17T12:32:44.579Z,31.42
2023-06-17T12:35:17.857Z,31.43
2023-06-17T12:37:55.884Z,31.48
2023-06-17T12:40:29.266Z,31.61
2023-06-17T12:43:04.153Z,31.71
2023-06-17T12:45:36.500Z,31.78
2023-06-17T12:48:09.092Z,31.87
2023-06-17T12:50:42.136Z,32.02
2023-06-17T12:53:14.603Z,32.16
2023-06-17T12:55:46.929Z,32.27
2023-06-17T12:58:21.828Z,32.33
2023-06-17T13:00:54.144Z,32.40
2023-06-17T13:03:26.779Z,32.44
2023-06-17T13:05:59.630Z,32.52
2023-06-17T13:08:31.931Z,32.71
2023-06-17T13:11:04.814Z,32.90
2023-06-17T13:13:39.635Z,33.21
2023-06-17T13:16:12.487Z,33.47
2023-06-17T13:18:44.699Z,33.68
2023-06-17T13:21:16.995Z,33.92
2023-06-17T13:23:49.628Z,34.20
2023-06-17T13:26:23.625Z,34.42
2023-06-17T13:28:58.459Z,34.72
2023-06-17T13:31:30.914Z,35.04
2023-06-17T13:34:03.306Z,35.23
2023-06-17T13:36:36.970Z,35.33
2023-06-17T13:39:09.920Z,35.55
2023-06-17T13:41:42.346Z,35.68
2023-06-17T13:44:17.897Z,35.90
2023-06-17T13:46:50.477Z,36.14
2023-06-17T13:49:23.185Z,36.40
2023-06-17T13:51:55.543Z,36.64
2023-06-17T13:54:28.413Z,36.83
2023-06-17T13:57:00.906Z,36.96
2023-06-17T13:59:36.257Z,37.03
2023-06-17T14:02:08.806Z,37.18
2023-06-17T14:04:41.311Z,37.38
2023-06-17T14:07:13.638Z,37.45
2023-06-17T14:09:46.131Z,37.77
2023-06-17T14:12:18.347Z,38.06
2023-06-17T14:14:53.703Z,38.22
2023-06-17T14:17:28.347Z,38.37
2023-06-17T14:20:00.869Z,38.59
2023-06-17T14:22:33.074Z,38.90
2023-06-17T14:25:05.326Z,39.18
2023-06-17T14:27:44.739Z,39.40
2023-06-17T14:30:20.524Z,39.60
2023-06-17T14:32:53.676Z,39.70
2023-06-17T14:35:26.168Z,39.79
2023-06-17T14:37:58.350Z,39.92
2023-06-17T14:40:30.564Z,40.07
2023-06-17T14:43:03.763Z,40.17
2023-06-17T14:45:38.757Z,40.12
2023-06-17T14:48:11.207Z,40.10
2023-06-17T14:50:43.591Z,40.04
2023-06-17T14:53:15.736Z,40.06
2023-06-17T14:56:06.628Z,40.06
2023-06-17T14:58:38.862Z,40.08
2023-06-17T15:01:13.671Z,40.11
2023-06-17T15:03:45.984Z,40.23
2023-06-17T15:06:18.363Z,40.42
2023-06-17T15:08:50.626Z,40.67
2023-06-17T15:11:22.871Z,40.85
2023-06-17T15:13:55.102Z,40.96
2023-06-17T15:16:30.119Z,41.12
2023-06-17T15:19:02.302Z,41.24
2023-06-17T15:21:34.556Z,41.40
2023-06-17T15:24:07.875Z,41.53
2023-06-17T15:26:40.416Z,41.81
2023-06-17T15:29:12.623Z,42.01
2023-06-17T15:31:48.129Z,42.06
2023-06-17T15:34:20.346Z,42.07
2023-06-17T15:36:55.074Z,41.92
2023-06-17T15:39:29.326Z,41.76
2023-06-17T15:42:01.617Z,41.57
2023-06-17T15:44:34.133Z,41.41
2023-06-17T15:47:09.734Z,41.28
2023-06-17T15:49:42.233Z,41.13
2023-06-17T15:52:14.429Z,40.76
2023-06-17T15:54:46.857Z,40.36
2023-06-17T15:57:20.206Z,39.97
2023-06-17T15:59:52.473Z,39.62
2023-06-17T16:02:27.304Z,39.38
2023-06-17T16:04:59.559Z,39.26
2023-06-17T16:07:33.143Z,39.09
2023-06-17T16:10:05.492Z,39.09
2023-06-17T16:12:38.776Z,39.07
2023-06-17T16:15:11.954Z,39.03
2023-06-17T16:17:46.862Z,38.96
2023-06-17T16:20:19.226Z,38.94
2023-06-17T16:22:51.550Z,38.86
2023-06-17T16:25:23.762Z,38.75
2023-06-17T16:27:56.173Z,38.64
2023-06-17T16:30:28.537Z,38.52
2023-06-17T16:33:03.344Z,38.41
2023-06-17T16:35:35.903Z,38.28
2023-06-17T16:38:08.137Z,38.17
2023-06-17T16:40:40.406Z,38.14
2023-06-17T16:43:12.663Z,38.16
2023-06-17T16:45:45.151Z,38.28
2023-06-17T16:48:20.035Z,38.52
2023-06-17T16:50:52.236Z,38.92
2023-06-17T16:53:24.930Z,39.34
2023-06-17T16:55:57.154Z,39.78
2023-06-17T16:58:29.430Z,40.08
2023-06-17T17:01:01.852Z,40.18
2023-06-17T17:03:39.996Z,40.19
2023-06-17T17:06:12.856Z,39.99
2023-06-17T17:08:45.230Z,39.61
2023-06-17T17:11:17.462Z,39.12
2023-06-17T17:13:50.163Z,38.63
2023-06-17T17:16:23.409Z,38.23
2023-06-17T17:18:58.317Z,37.89
2023-06-17T17:21:30.652Z,37.71
2023-06-17T17:24:05.776Z,37.37
2023-06-17T17:26:38.681Z,37.06
2023-06-17T17:29:11.065Z,36.75
2023-06-17T17:31:43.477Z,36.31
2023-06-17T17:34:18.355Z,35.86
2023-06-17T17:36:50.746Z,35.37
2023-06-17T17:39:22.895Z,35.05
2023-06-17T17:41:55.310Z,34.69
2023-06-17T17:44:27.504Z,34.34
2023-06-17T17:47:06.884Z,33.95
2023-06-17T17:49:41.705Z,33.47
2023-06-17T17:52:13.945Z,33.08
2023-06-17T17:55:00.660Z,32.78
2023-06-17T17:57:33.854Z,32.51
2023-06-17T18:00:06.054Z,32.30
2023-06-17T18:02:38.307Z,32.10
2023-06-17T18:05:14.110Z,31.71
2023-06-17T18:07:48.894Z,31.25
2023-06-17T18:10:22.221Z,31.11
2023-06-17T18:12:54.649Z,30.88
2023-06-17T18:15:26.856Z,30.63
2023-06-17T18:17:59.144Z,30.41
2023-06-17T18:20:33.991Z,30.19
2023-06-17T18:23:06.369Z,30.02
2023-06-17T18:25:38.798Z,29.87
2023-06-17T18:28:11.097Z,29.73
2023-06-17T18:30:44.208Z,29.55
2023-06-17T18:33:16.607Z,29.32
2023-06-17T18:35:51.421Z,29.08
2023-06-17T18:38:23.727Z,28.83
2023-06-17T18:40:56.012Z,28.65
2023-06-17T18:43:28.230Z,28.43
2023-06-17T18:46:00.558Z,28.20
2023-06-17T18:48:33.263Z,28.03
2023-06-17T18:51:08.323Z,27.87
2023-06-17T18:53:41.037Z,27.73
2023-06-17T18:56:13.445Z,27.61
2023-06-17T18:58:45.920Z,27.47
2023-06-17T19:01:18.225Z,27.31
2023-06-17T19:03:50.836Z,27.18
2023-06-17T19:06:25.729Z,27.07
2023-06-17T19:08:57.991Z,26.95
2023-06-17T19:11:30.213Z,26.79
2023-06-17T19:14:09.868Z,26.63
2023-06-17T19:16:42.277Z,26.48
2023-06-17T19:19:14.605Z,26.35
2023-06-17T19:21:49.439Z,26.24
2023-06-17T19:24:22.156Z,26.15
2023-06-17T19:26:54.545Z,26.05
2023-06-17T19:29:26.751Z,25.95
2023-06-17T19:31:59.626Z,25.86
2023-06-17T19:34:31.814Z,25.80
2023-06-17T19:37:06.765Z,25.74
2023-06-17T19:39:39.017Z,25.65
2023-06-17T19:42:11.588Z,25.54
2023-06-17T19:44:44.363Z,25.44
2023-06-17T19:47:18.024Z,25.35
2023-06-17T19:49:50.185Z,25.27
2023-06-17T19:52:25.164Z,25.20
2023-06-17T19:54:58.229Z,25.15
2023-06-17T19:57:33.009Z,25.09
2023-06-17T20:00:05.322Z,25.03
2023-06-17T20:02:37.857Z,24.95
2023-06-17T20:05:12.604Z,24.79
2023-06-17T20:07:47.687Z,24.58
2023-06-17T20:10:20.247Z,24.50
2023-06-17T20:12:58.661Z,24.44
2023-06-17T20:15:31.081Z,24.37
2023-06-17T20:18:03.425Z,24.29
2023-06-17T20:20:35.774Z,24.23
2023-06-17T20:23:11.161Z,24.16
2023-06-17T20:25:43.649Z,24.09
2023-06-17T20:28:16.009Z,24.01
2023-06-17T20:30:48.343Z,23.92
2023-06-17T20:33:20.599Z,23.82
2023-06-17T20:35:55.061Z,23.74
2023-06-17T20:38:29.884Z,23.67
2023-06-17T20:41:02.705Z,23.62
2023-06-17T20:43:35.562Z,23.58
2023-06-17T20:46:10.856Z,23.53
2023-06-17T20:48:43.136Z,23.50
2023-06-17T20:51:15.326Z,23.48
2023-06-17T20:53:50.123Z,23.46
2023-06-17T20:56:23.210Z,23.44
2023-06-17T20:58:56.891Z,23.42
2023-06-17T21:01:29.172Z,23.39
2023-06-17T21:04:01.662Z,23.36
2023-06-17T21:06:35.057Z,23.32
2023-06-17T21:09:10.361Z,23.29
2023-06-17T21:11:42.687Z,23.27
2023-06-17T21:14:14.993Z,23.26
2023-06-17T21:16:47.507Z,23.25
2023-06-17T21:19:19.803Z,23.24
2023-06-17T21:21:51.996Z,23.25
2023-06-17T21:24:26.913Z,23.24
2023-06-17T21:26:59.353Z,23.23
2023-06-17T21:29:31.595Z,23.20
2023-06-17T21:32:03.813Z,23.16
2023-06-17T21:34:36.147Z,23.14
2023-06-17T21:37:09.009Z,23.10
2023-06-17T21:39:43.776Z,23.03
2023-06-17T21:42:16.047Z,22.98
2023-06-17T21:44:48.338Z,22.93
2023-06-17T21:47:21.144Z,22.88
2023-06-17T21:49:53.508Z,22.85
2023-06-17T21:52:25.816Z,22.82
2023-06-17T21:55:00.683Z,22.81
2023-06-17T21:57:33.224Z,22.81
2023-06-17T22:00:06.871Z,22.79
2023-06-17T22:02:39.185Z,22.78
2023-06-17T22:05:12.045Z,22.70
2023-06-17T22:07:44.528Z,22.59
2023-06-17T22:10:19.511Z,22.59
2023-06-17T22:12:51.952Z,22.59
2023-06-17T22:15:24.192Z,22.57
2023-06-17T22:17:57.207Z,22.55
2023-06-17T22:20:29.484Z,22.54
2023-06-17T22:23:01.690Z,22.54
2023-06-17T22:25:36.495Z,22.51
2023-06-17T22:28:08.927Z,22.47
2023-06-17T22:30:41.259Z,22.43
2023-06-17T22:33:13.478Z,22.40
2023-06-17T22:35:46.092Z,22.37
2023-06-17T22:38:18.300Z,22.36
2023-06-17T22:40:53.560Z,22.36
2023-06-17T22:43:25.797Z,22.37
2023-06-17T22:45:58.145Z,22.37
2023-06-17T22:48:30.349Z,22.34
2023-06-17T22:51:02.968Z,22.33
2023-06-17T22:53:35.621Z,22.32
2023-06-17T22:56:10.575Z,22.30
2023-06-17T22:58:42.777Z,22.27
2023-06-17T23:01:15.020Z,22.21
2023-06-17T23:03:47.319Z,22.14
2023-06-17T23:06:19.779Z,22.09
2023-06-17T23:08:52.040Z,22.03
2023-06-17T23:11:26.833Z,21.98
2023-06-17T23:13:59.094Z,21.92
2023-06-17T23:16:31.610Z,21.87
2023-06-17T23:19:03.901Z,21.84
2023-06-17T23:21:38.065Z,21.81
2023-06-17T23:24:10.517Z,21.79
2023-06-17T23:26:46.053Z,21.78
2023-06-17T23:29:18.680Z,21.78
2023-06-17T23:31:51.769Z,21.80
2023-06-17T23:34:24.430Z,21.82
2023-06-17T23:36:56.912Z,21.83
2023-06-17T23:39:29.210Z,21.83
2023-06-17T23:42:04.058Z,21.85
2023-06-17T23:44:36.274Z,21.87
2023-06-17T23:47:08.757Z,21.89
2023-06-17T23:49:42.101Z,21.90
2023-06-17T23:52:14.981Z,21.91
2023-06-17T23:54:47.213Z,21.92
2023-06-17T23:57:22.282Z,21.90
2023-06-17T23:59:54.464Z,21.88
